Palessa — V2IA7 — position and weather

sailwx.info

Track history (hours):
 
Tides and Currents Weather Stations Pressure Air Temp Water Temp Dewpoint Dewpoint Depression Visibility Wind Speed Wind Dir Waves Ship Positions

Palessa

Last reported at 2014-Sep-01 23:31 UTC. Time now 2014-Sep-02 00:01 UTC.
Position N 51°15' E 004°22'.

Length 118 m; draft 5.3 m.

Type: Cargo ship. MMSI: 304255000.

Date/timePositionNaut miles runAvg speedWind from/ knotsBaromVisibWave heightAir tempDewpointWater temp
2014-Sep-01 23:31N 51°15' E 004°22'0 0.0
2014-Sep-01 22:31N 51°15' E 004°22'0 0.0
2014-Sep-01 21:31N 51°15' E 004°22'0 0.0
2014-Sep-01 20:31N 51°15' E 004°22'0 0.0
2014-Sep-01 19:28N 51°15' E 004°22'0 0.0
2014-Sep-01 18:31N 51°15' E 004°22'0 0.0
2014-Sep-01 17:31N 51°15' E 004°22'0 0.0
2014-Sep-01 16:28N 51°15' E 004°22'0 0.0
2014-Sep-01 15:31N 51°15' E 004°22'0 0.0
2014-Sep-01 14:31N 51°15' E 004°22'0 0.0
2014-Sep-01 13:28N 51°15' E 004°22'0 0.0
2014-Sep-01 12:31N 51°15' E 004°22'0 0.0
2014-Sep-01 11:31N 51°15' E 004°22'0 0.0
2014-Sep-01 10:32N 51°15' E 004°22'2 2.4
2014-Sep-01 09:34N 51°17' E 004°20'2 1.6
2014-Sep-01 08:34N 51°18' E 004°18'7 7.3
2014-Sep-01 07:33N 51°23' E 004°09'7 7.4
2014-Sep-01 06:33N 51°23' E 003°57'9 9.5
2014-Sep-01 05:33N 51°25' E 003°42'7 6.9
2014-Sep-01 04:33N 51°25' E 003°31'1510.4
2014-Sep-01 03:04N 51°24' E 003°07'813.5
2014-Sep-01 02:30N 51°22' E 002°55'1111.7
2014-Sep-01 01:33N 51°22' E 002°37'3 3.2
2014-Sep-01 00:30N 51°20' E 002°32'0 0.0
2014-Aug-31 23:33N 51°20' E 002°32'0 0.0
2014-Aug-31 21:33N 51°20' E 002°32'0 0.0
2014-Aug-31 20:30N 51°20' E 002°32'0 0.1
2014-Aug-31 19:33N 51°20' E 002°32'0 0.1
2014-Aug-31 18:33N 51°20' E 002°32'0 0.0
2014-Aug-31 17:33N 51°20' E 002°32'0 0.0
2014-Aug-31 16:33N 51°20' E 002°32'0 0.0
2014-Aug-31 15:33N 51°20' E 002°32'0 0.0
2014-Aug-31 14:33N 51°20' E 002°32'0 0.0
2014-Aug-31 13:33N 51°20' E 002°32'0 0.1
2014-Aug-31 12:33N 51°20' E 002°32'0 0.0
2014-Aug-31 11:33N 51°20' E 002°32'0 0.0
2014-Aug-31 10:24N 51°20' E 002°32'0 0.0
2014-Aug-31 09:33N 51°20' E 002°32'0 0.1
2014-Aug-31 07:33N 51°20' E 002°32'0 0.0
2014-Aug-31 06:33N 51°20' E 002°32'0 0.0
2014-Aug-31 05:33N 51°20' E 002°32'2 2.1
2014-Aug-31 04:33N 51°22' E 002°30'1212.5
2014-Aug-31 03:33N 51°16' E 002°12'1313.2
2014-Aug-31 02:33N 51°10' E 001°53'1414.2
2014-Aug-31 01:33N 51°01' E 001°36'3912.9
2014-Aug-30 22:33N 50°30' E 000°58'1313.1
2014-Aug-30 21:33N 50°26' E 000°39'1312.7
2014-Aug-30 20:33N 50°23' E 000°20'3511.2
2014-Aug-30 17:27N 50°32' W 000°33'1011.2
2014-Aug-30 16:33N 50°37' W 000°47'1111.0
2014-Aug-30 15:33N 50°43' W 001°01'1010.3
2014-Aug-30 14:33N 50°48' W 001°15'9 7.3
2014-Aug-30 13:21N 50°54' W 001°25'0 0.0
2014-Aug-30 07:09N 50°54' W 001°25'0 0.0
2014-Aug-30 04:03N 50°54' W 001°25'0 0.0
2014-Aug-30 03:33N 50°54' W 001°25'0 0.0
2014-Aug-30 00:03N 50°54' W 001°25'0 0.0
2014-Aug-29 03:32N 50°54' W 001°25'0 0.0
2014-Aug-28 22:31N 50°54' W 001°25'0 0.0
2014-Aug-28 18:32N 50°54' W 001°25'0 0.0
2014-Aug-28 17:28N 50°54' W 001°25'0 0.0
2014-Aug-28 15:14N 50°54' W 001°25'0 0.0
2014-Aug-28 14:31N 50°54' W 001°25'6 5.8
2014-Aug-28 13:33N 50°50' W 001°19'5 4.7
2014-Aug-28 12:33N 50°47' W 001°13'0 0.0
2014-Aug-28 11:33N 50°47' W 001°13'2 2.0
2014-Aug-28 10:33N 50°46' W 001°10'6 6.4
2014-Aug-28 09:33N 50°42' W 001°02'0 0.0
2014-Aug-28 08:33N 50°42' W 001°02'0 0.0
2014-Aug-28 07:33N 50°42' W 001°02'0 0.0
2014-Aug-28 06:33N 50°42' W 001°02'0 0.1
2014-Aug-28 05:33N 50°42' W 001°02'0 0.1
2014-Aug-28 04:33N 50°42' W 001°02'0 0.0
2014-Aug-28 03:33N 50°42' W 001°02'0 0.1
2014-Aug-28 02:33N 50°42' W 001°02'0 0.0
2014-Aug-28 01:33N 50°42' W 001°02'0 0.0
2014-Aug-28 00:33N 50°42' W 001°02'0 0.0
2014-Aug-27 23:33N 50°42' W 001°02'0 0.0
2014-Aug-27 22:33N 50°42' W 001°02'0 0.0
2014-Aug-27 21:33N 50°42' W 001°02'0 0.0
2014-Aug-27 20:33N 50°42' W 001°02'0 0.0
2014-Aug-27 19:33N 50°42' W 001°02'0 0.0
2014-Aug-27 18:33N 50°42' W 001°02'0 0.0
2014-Aug-27 17:33N 50°42' W 001°03'0 0.1
2014-Aug-27 16:33N 50°42' W 001°02'0 0.1
2014-Aug-27 15:33N 50°42' W 001°03'6 6.1
2014-Aug-27 14:33N 50°36' W 001°01'9 9.1
2014-Aug-27 13:33N 50°32' W 001°14'1110.0
2014-Aug-27 12:30N 50°29' W 001°30'164 8.6
2014-Aug-26 17:18N 50°52' W 005°47'  
Track history (hours):
 
Tides and Currents Weather Stations Pressure Air Temp Water Temp Dewpoint Dewpoint Depression Visibility Wind Speed Wind Dir Waves Ship Positions

Palessa

Last reported at 2014-Sep-01 23:31 UTC. Time now 2014-Sep-02 00:01 UTC.
Position N 51°15' E 004°22'.

Length 118 m; draft 5.3 m.

Type: Cargo ship. MMSI: 304255000.

Date/timePositionNaut miles runAvg speedWind from/ knotsBaromVisibWave heightAir tempDewpointWater temp
2014-Sep-01 23:31N 51°15' E 004°22'0 0.0
2014-Sep-01 22:31N 51°15' E 004°22'0 0.0
2014-Sep-01 21:31N 51°15' E 004°22'0 0.0
2014-Sep-01 20:31N 51°15' E 004°22'0 0.0
2014-Sep-01 19:28N 51°15' E 004°22'0 0.0
2014-Sep-01 18:31N 51°15' E 004°22'0 0.0
2014-Sep-01 17:31N 51°15' E 004°22'0 0.0
2014-Sep-01 16:28N 51°15' E 004°22'0 0.0
2014-Sep-01 15:31N 51°15' E 004°22'0 0.0
2014-Sep-01 14:31N 51°15' E 004°22'0 0.0
2014-Sep-01 13:28N 51°15' E 004°22'0 0.0
2014-Sep-01 12:31N 51°15' E 004°22'0 0.0
2014-Sep-01 11:31N 51°15' E 004°22'0 0.0
2014-Sep-01 10:32N 51°15' E 004°22'2 2.4
2014-Sep-01 09:34N 51°17' E 004°20'2 1.6
2014-Sep-01 08:34N 51°18' E 004°18'7 7.3
2014-Sep-01 07:33N 51°23' E 004°09'7 7.4
2014-Sep-01 06:33N 51°23' E 003°57'9 9.5
2014-Sep-01 05:33N 51°25' E 003°42'7 6.9
2014-Sep-01 04:33N 51°25' E 003°31'1510.4
2014-Sep-01 03:04N 51°24' E 003°07'813.5
2014-Sep-01 02:30N 51°22' E 002°55'1111.7
2014-Sep-01 01:33N 51°22' E 002°37'3 3.2
2014-Sep-01 00:30N 51°20' E 002°32'0 0.0
2014-Aug-31 23:33N 51°20' E 002°32'0 0.0
2014-Aug-31 21:33N 51°20' E 002°32'0 0.0
2014-Aug-31 20:30N 51°20' E 002°32'0 0.1
2014-Aug-31 19:33N 51°20' E 002°32'0 0.1
2014-Aug-31 18:33N 51°20' E 002°32'0 0.0
2014-Aug-31 17:33N 51°20' E 002°32'0 0.0
2014-Aug-31 16:33N 51°20' E 002°32'0 0.0
2014-Aug-31 15:33N 51°20' E 002°32'0 0.0
2014-Aug-31 14:33N 51°20' E 002°32'0 0.0
2014-Aug-31 13:33N 51°20' E 002°32'0 0.1
2014-Aug-31 12:33N 51°20' E 002°32'0 0.0
2014-Aug-31 11:33N 51°20' E 002°32'0 0.0
2014-Aug-31 10:24N 51°20' E 002°32'0 0.0
2014-Aug-31 09:33N 51°20' E 002°32'0 0.1
2014-Aug-31 07:33N 51°20' E 002°32'0 0.0
2014-Aug-31 06:33N 51°20' E 002°32'0 0.0
2014-Aug-31 05:33N 51°20' E 002°32'2 2.1
2014-Aug-31 04:33N 51°22' E 002°30'1212.5
2014-Aug-31 03:33N 51°16' E 002°12'1313.2
2014-Aug-31 02:33N 51°10' E 001°53'1414.2
2014-Aug-31 01:33N 51°01' E 001°36'3912.9
2014-Aug-30 22:33N 50°30' E 000°58'1313.1
2014-Aug-30 21:33N 50°26' E 000°39'1312.7
2014-Aug-30 20:33N 50°23' E 000°20'3511.2
2014-Aug-30 17:27N 50°32' W 000°33'1011.2
2014-Aug-30 16:33N 50°37' W 000°47'1111.0
2014-Aug-30 15:33N 50°43' W 001°01'1010.3
2014-Aug-30 14:33N 50°48' W 001°15'9 7.3
2014-Aug-30 13:21N 50°54' W 001°25'0 0.0
2014-Aug-30 07:09N 50°54' W 001°25'0 0.0
2014-Aug-30 04:03N 50°54' W 001°25'0 0.0
2014-Aug-30 03:33N 50°54' W 001°25'0 0.0
2014-Aug-30 00:03N 50°54' W 001°25'0 0.0
2014-Aug-29 03:32N 50°54' W 001°25'0 0.0
2014-Aug-28 22:31N 50°54' W 001°25'0 0.0
2014-Aug-28 18:32N 50°54' W 001°25'0 0.0
2014-Aug-28 17:28N 50°54' W 001°25'0 0.0
2014-Aug-28 15:14N 50°54' W 001°25'0 0.0
2014-Aug-28 14:31N 50°54' W 001°25'6 5.8
2014-Aug-28 13:33N 50°50' W 001°19'5 4.7
2014-Aug-28 12:33N 50°47' W 001°13'0 0.0
2014-Aug-28 11:33N 50°47' W 001°13'2 2.0
2014-Aug-28 10:33N 50°46' W 001°10'6 6.4
2014-Aug-28 09:33N 50°42' W 001°02'0 0.0
2014-Aug-28 08:33N 50°42' W 001°02'0 0.0
2014-Aug-28 07:33N 50°42' W 001°02'0 0.0
2014-Aug-28 06:33N 50°42' W 001°02'0 0.1
2014-Aug-28 05:33N 50°42' W 001°02'0 0.1
2014-Aug-28 04:33N 50°42' W 001°02'0 0.0
2014-Aug-28 03:33N 50°42' W 001°02'0 0.1
2014-Aug-28 02:33N 50°42' W 001°02'0 0.0
2014-Aug-28 01:33N 50°42' W 001°02'0 0.0
2014-Aug-28 00:33N 50°42' W 001°02'0 0.0
2014-Aug-27 23:33N 50°42' W 001°02'0 0.0
2014-Aug-27 22:33N 50°42' W 001°02'0 0.0
2014-Aug-27 21:33N 50°42' W 001°02'0 0.0
2014-Aug-27 20:33N 50°42' W 001°02'0 0.0
2014-Aug-27 19:33N 50°42' W 001°02'0 0.0
2014-Aug-27 18:33N 50°42' W 001°02'0 0.0
2014-Aug-27 17:33N 50°42' W 001°03'0 0.1
2014-Aug-27 16:33N 50°42' W 001°02'0 0.1
2014-Aug-27 15:33N 50°42' W 001°03'6 6.1
2014-Aug-27 14:33N 50°36' W 001°01'9 9.1
2014-Aug-27 13:33N 50°32' W 001°14'1110.0
2014-Aug-27 12:30N 50°29' W 001°30'164 8.6
2014-Aug-26 17:18N 50°52' W 005°47'  

Dump ship's entire track history